sensor_id;sensor_type;location;lat;lon;timestamp;P1;durP1;ratioP1;P2;durP2;ratioP2
44078;SDS011;29744;49.078;12.878;2023-03-01T00:02:06;3.50;;;2.00;;
44078;SDS011;29744;49.078;12.878;2023-03-01T00:07:07;3.00;;;1.80;;
44078;SDS011;29744;49.078;12.878;2023-03-01T00:12:07;2.97;;;1.70;;
44078;SDS011;29744;49.078;12.878;2023-03-01T00:17:07;3.20;;;1.67;;
44078;SDS011;29744;49.078;12.878;2023-03-01T00:22:08;3.25;;;1.88;;
44078;SDS011;29744;49.078;12.878;2023-03-01T00:27:08;3.08;;;1.90;;
44078;SDS011;29744;49.078;12.878;2023-03-01T00:32:08;2.78;;;1.50;;
44078;SDS011;29744;49.078;12.878;2023-03-01T00:37:08;2.63;;;1.50;;
44078;SDS011;29744;49.078;12.878;2023-03-01T00:42:09;2.88;;;1.73;;
44078;SDS011;29744;49.078;12.878;2023-03-01T00:47:09;2.97;;;1.80;;
44078;SDS011;29744;49.078;12.878;2023-03-01T00:52:09;2.97;;;1.65;;
44078;SDS011;29744;49.078;12.878;2023-03-01T00:57:09;3.25;;;1.63;;
44078;SDS011;29744;49.078;12.878;2023-03-01T01:02:10;2.92;;;1.58;;
44078;SDS011;29744;49.078;12.878;2023-03-01T01:07:10;2.67;;;1.50;;
44078;SDS011;29744;49.078;12.878;2023-03-01T01:12:10;3.17;;;1.83;;
44078;SDS011;29744;49.078;12.878;2023-03-01T01:17:10;2.47;;;1.63;;
44078;SDS011;29744;49.078;12.878;2023-03-01T01:22:11;2.97;;;1.60;;
44078;SDS011;29744;49.078;12.878;2023-03-01T01:27:11;3.65;;;2.13;;
44078;SDS011;29744;49.078;12.878;2023-03-01T01:32:11;3.00;;;1.63;;
44078;SDS011;29744;49.078;12.878;2023-03-01T01:37:12;2.90;;;1.70;;
44078;SDS011;29744;49.078;12.878;2023-03-01T01:42:16;2.30;;;1.52;;
44078;SDS011;29744;49.078;12.878;2023-03-01T01:47:18;3.22;;;1.77;;
44078;SDS011;29744;49.078;12.878;2023-03-01T01:57:30;2.45;;;1.60;;
44078;SDS011;29744;49.078;12.878;2023-03-01T02:02:34;2.95;;;1.65;;
44078;SDS011;29744;49.078;12.878;2023-03-01T02:07:34;2.83;;;1.63;;
44078;SDS011;29744;49.078;12.878;2023-03-01T02:12:36;2.85;;;1.73;;
44078;SDS011;29744;49.078;12.878;2023-03-01T02:17:38;2.78;;;1.50;;
44078;SDS011;29744;49.078;12.878;2023-03-01T02:22:38;2.96;;;1.60;;
44078;SDS011;29744;49.078;12.878;2023-03-01T02:33:03;3.55;;;1.55;;
44078;SDS011;29744;49.078;12.878;2023-03-01T02:38:06;2.95;;;1.70;;
44078;SDS011;29744;49.078;12.878;2023-03-01T02:43:08;3.67;;;2.22;;
44078;SDS011;29744;49.078;12.878;2023-03-01T02:48:11;3.28;;;1.80;;
44078;SDS011;29744;49.078;12.878;2023-03-01T02:53:22;2.80;;;1.83;;
44078;SDS011;29744;49.078;12.878;2023-03-01T02:58:32;2.40;;;1.50;;
44078;SDS011;29744;49.078;12.878;2023-03-01T03:03:40;2.67;;;1.58;;
44078;SDS011;29744;49.078;12.878;2023-03-01T03:08:41;3.55;;;1.77;;
44078;SDS011;29744;49.078;12.878;2023-03-01T03:13:41;2.72;;;1.63;;
44078;SDS011;29744;49.078;12.878;2023-03-01T03:18:47;2.50;;;1.60;;
44078;SDS011;29744;49.078;12.878;2023-03-01T03:23:48;2.58;;;1.65;;
44078;SDS011;29744;49.078;12.878;2023-03-01T03:28:48;2.58;;;1.60;;
44078;SDS011;29744;49.078;12.878;2023-03-01T03:33:48;3.50;;;1.63;;
44078;SDS011;29744;49.078;12.878;2023-03-01T03:38:49;2.70;;;1.58;;
44078;SDS011;29744;49.078;12.878;2023-03-01T03:43:49;2.20;;;1.42;;
44078;SDS011;29744;49.078;12.878;2023-03-01T03:48:50;3.45;;;1.60;;
44078;SDS011;29744;49.078;12.878;2023-03-01T03:53:50;2.85;;;1.60;;
44078;SDS011;29744;49.078;12.878;2023-03-01T03:58:50;2.65;;;1.60;;
44078;SDS011;29744;49.078;12.878;2023-03-01T04:03:51;2.38;;;1.63;;
44078;SDS011;29744;49.078;12.878;2023-03-01T04:08:54;3.40;;;1.60;;
44078;SDS011;29744;49.078;12.878;2023-03-01T04:13:58;2.53;;;1.60;;
44078;SDS011;29744;49.078;12.878;2023-03-01T04:18:59;2.72;;;1.48;;
44078;SDS011;29744;49.078;12.878;2023-03-01T04:24:00;2.58;;;1.55;;
44078;SDS011;29744;49.078;12.878;2023-03-01T04:29:02;2.70;;;1.50;;
44078;SDS011;29744;49.078;12.878;2023-03-01T04:34:03;2.28;;;1.40;;
44078;SDS011;29744;49.078;12.878;2023-03-01T04:39:03;2.47;;;1.45;;
44078;SDS011;29744;49.078;12.878;2023-03-01T04:44:11;2.70;;;1.48;;
44078;SDS011;29744;49.078;12.878;2023-03-01T04:49:12;2.45;;;1.45;;
44078;SDS011;29744;49.078;12.878;2023-03-01T04:54:12;2.58;;;1.60;;
44078;SDS011;29744;49.078;12.878;2023-03-01T04:59:13;2.50;;;1.40;;
44078;SDS011;29744;49.078;12.878;2023-03-01T05:04:13;2.88;;;1.58;;
44078;SDS011;29744;49.078;12.878;2023-03-01T05:09:13;2.75;;;1.42;;
44078;SDS011;29744;49.078;12.878;2023-03-01T05:14:14;2.50;;;1.50;;
44078;SDS011;29744;49.078;12.878;2023-03-01T05:19:14;2.24;;;1.34;;
44078;SDS011;29744;49.078;12.878;2023-03-01T05:24:22;2.13;;;1.40;;
44078;SDS011;29744;49.078;12.878;2023-03-01T05:29:23;2.47;;;1.38;;
44078;SDS011;29744;49.078;12.878;2023-03-01T05:34:31;2.10;;;1.30;;
44078;SDS011;29744;49.078;12.878;2023-03-01T05:39:33;2.33;;;1.40;;
44078;SDS011;29744;49.078;12.878;2023-03-01T05:44:34;2.03;;;1.30;;
44078;SDS011;29744;49.078;12.878;2023-03-01T05:49:34;2.03;;;1.20;;
44078;SDS011;29744;49.078;12.878;2023-03-01T05:54:34;2.88;;;1.50;;
44078;SDS011;29744;49.078;12.878;2023-03-01T05:59:34;1.98;;;1.05;;
44078;SDS011;29744;49.078;12.878;2023-03-01T06:04:35;2.33;;;1.40;;
44078;SDS011;29744;49.078;12.878;2023-03-01T06:09:35;1.92;;;1.10;;
44078;SDS011;29744;49.078;12.878;2023-03-01T06:14:35;2.20;;;1.30;;
44078;SDS011;29744;49.078;12.878;2023-03-01T06:19:36;1.90;;;1.30;;
44078;SDS011;29744;49.078;12.878;2023-03-01T06:24:36;1.98;;;1.30;;
44078;SDS011;29744;49.078;12.878;2023-03-01T06:29:36;1.90;;;1.17;;
44078;SDS011;29744;49.078;12.878;2023-03-01T06:34:36;2.58;;;1.40;;
44078;SDS011;29744;49.078;12.878;2023-03-01T06:39:37;1.77;;;1.27;;
44078;SDS011;29744;49.078;12.878;2023-03-01T06:44:37;2.25;;;1.40;;
44078;SDS011;29744;49.078;12.878;2023-03-01T06:49:37;1.77;;;1.10;;
44078;SDS011;29744;49.078;12.878;2023-03-01T06:54:38;1.70;;;1.13;;
44078;SDS011;29744;49.078;12.878;2023-03-01T06:59:38;2.00;;;1.25;;
44078;SDS011;29744;49.078;12.878;2023-03-01T07:04:38;1.83;;;1.23;;
44078;SDS011;29744;49.078;12.878;2023-03-01T07:09:39;2.30;;;1.50;;
44078;SDS011;29744;49.078;12.878;2023-03-01T07:14:39;2.22;;;1.40;;
44078;SDS011;29744;49.078;12.878;2023-03-01T07:19:40;2.45;;;1.40;;
44078;SDS011;29744;49.078;12.878;2023-03-01T07:24:40;2.60;;;1.40;;
44078;SDS011;29744;49.078;12.878;2023-03-01T07:29:41;2.47;;;1.48;;
44078;SDS011;29744;49.078;12.878;2023-03-01T07:34:41;2.63;;;1.27;;
44078;SDS011;29744;49.078;12.878;2023-03-01T07:39:42;2.03;;;1.30;;
44078;SDS011;29744;49.078;12.878;2023-03-01T07:44:42;1.90;;;1.40;;
44078;SDS011;29744;49.078;12.878;2023-03-01T07:49:42;2.15;;;1.35;;
44078;SDS011;29744;49.078;12.878;2023-03-01T07:54:43;2.38;;;1.48;;
44078;SDS011;29744;49.078;12.878;2023-03-01T07:59:44;2.25;;;1.30;;
44078;SDS011;29744;49.078;12.878;2023-03-01T08:04:44;2.17;;;1.38;;
44078;SDS011;29744;49.078;12.878;2023-03-01T08:09:44;2.97;;;1.70;;
44078;SDS011;29744;49.078;12.878;2023-03-01T08:14:45;2.30;;;1.40;;
44078;SDS011;29744;49.078;12.878;2023-03-01T08:19:48;2.42;;;1.40;;
44078;SDS011;29744;49.078;12.878;2023-03-01T08:24:48;2.45;;;1.50;;
44078;SDS011;29744;49.078;12.878;2023-03-01T08:29:48;2.65;;;1.50;;
44078;SDS011;29744;49.078;12.878;2023-03-01T08:34:49;2.25;;;1.50;;
44078;SDS011;29744;49.078;12.878;2023-03-01T08:39:49;2.67;;;1.58;;
44078;SDS011;29744;49.078;12.878;2023-03-01T08:44:49;2.58;;;1.52;;
44078;SDS011;29744;49.078;12.878;2023-03-01T08:49:50;2.20;;;1.40;;
44078;SDS011;29744;49.078;12.878;2023-03-01T08:54:50;2.45;;;1.60;;
44078;SDS011;29744;49.078;12.878;2023-03-01T08:59:50;2.22;;;1.33;;
44078;SDS011;29744;49.078;12.878;2023-03-01T09:04:51;2.58;;;1.52;;
44078;SDS011;29744;49.078;12.878;2023-03-01T09:09:51;2.70;;;1.63;;
44078;SDS011;29744;49.078;12.878;2023-03-01T09:14:53;3.15;;;1.58;;
44078;SDS011;29744;49.078;12.878;2023-03-01T09:19:53;1.90;;;1.13;;
44078;SDS011;29744;49.078;12.878;2023-03-01T09:24:53;2.65;;;1.58;;
44078;SDS011;29744;49.078;12.878;2023-03-01T09:29:54;2.60;;;1.65;;
44078;SDS011;29744;49.078;12.878;2023-03-01T09:34:56;2.38;;;1.40;;
44078;SDS011;29744;49.078;12.878;2023-03-01T09:40:06;2.85;;;1.60;;
44078;SDS011;29744;49.078;12.878;2023-03-01T09:45:11;2.25;;;1.40;;
44078;SDS011;29744;49.078;12.878;2023-03-01T09:50:23;2.15;;;1.30;;
44078;SDS011;29744;49.078;12.878;2023-03-01T09:55:33;2.33;;;1.40;;
44078;SDS011;29744;49.078;12.878;2023-03-01T10:00:41;2.17;;;1.35;;
44078;SDS011;29744;49.078;12.878;2023-03-01T10:05:56;2.55;;;1.30;;
44078;SDS011;29744;49.078;12.878;2023-03-01T10:11:04;2.20;;;1.30;;
44078;SDS011;29744;49.078;12.878;2023-03-01T10:16:16;2.13;;;1.20;;
44078;SDS011;29744;49.078;12.878;2023-03-01T10:21:21;2.43;;;1.30;;
44078;SDS011;29744;49.078;12.878;2023-03-01T10:26:34;1.90;;;1.13;;
44078;SDS011;29744;49.078;12.878;2023-03-01T10:31:41;2.63;;;1.45;;
44078;SDS011;29744;49.078;12.878;2023-03-01T10:36:43;2.40;;;1.38;;
44078;SDS011;29744;49.078;12.878;2023-03-01T10:41:54;2.08;;;1.20;;
44078;SDS011;29744;49.078;12.878;2023-03-01T10:47:00;1.45;;;1.08;;
44078;SDS011;29744;49.078;12.878;2023-03-01T10:52:18;2.33;;;1.27;;
44078;SDS011;29744;49.078;12.878;2023-03-01T10:57:28;2.37;;;1.23;;
44078;SDS011;29744;49.078;12.878;2023-03-01T11:02:36;1.50;;;1.10;;
44078;SDS011;29744;49.078;12.878;2023-03-01T11:07:46;2.33;;;1.50;;
44078;SDS011;29744;49.078;12.878;2023-03-01T11:18:19;1.90;;;1.20;;
44078;SDS011;29744;49.078;12.878;2023-03-01T11:23:20;1.98;;;1.17;;
44078;SDS011;29744;49.078;12.878;2023-03-01T11:28:22;2.15;;;1.30;;
44078;SDS011;29744;49.078;12.878;2023-03-01T11:33:37;1.80;;;1.15;;
44078;SDS011;29744;49.078;12.878;2023-03-01T11:38:43;1.63;;;1.13;;
44078;SDS011;29744;49.078;12.878;2023-03-01T11:54:06;2.22;;;1.30;;
44078;SDS011;29744;49.078;12.878;2023-03-01T11:59:23;2.05;;;1.20;;
44078;SDS011;29744;49.078;12.878;2023-03-01T12:10:00;1.98;;;1.13;;
44078;SDS011;29744;49.078;12.878;2023-03-01T12:20:32;2.28;;;1.17;;
44078;SDS011;29744;49.078;12.878;2023-03-01T12:25:48;1.67;;;1.20;;
44078;SDS011;29744;49.078;12.878;2023-03-01T12:31:06;1.42;;;1.10;;
44078;SDS011;29744;49.078;12.878;2023-03-01T12:36:31;1.88;;;1.20;;
44078;SDS011;29744;49.078;12.878;2023-03-01T12:42:05;1.98;;;1.20;;
44078;SDS011;29744;49.078;12.878;2023-03-01T12:47:21;2.08;;;1.20;;
44078;SDS011;29744;49.078;12.878;2023-03-01T12:52:52;1.95;;;1.08;;
44078;SDS011;29744;49.078;12.878;2023-03-01T13:13:23;1.70;;;1.00;;
44078;SDS011;29744;49.078;12.878;2023-03-01T13:23:31;1.95;;;1.00;;
44078;SDS011;29744;49.078;12.878;2023-03-01T13:28:38;1.83;;;1.05;;
44078;SDS011;29744;49.078;12.878;2023-03-01T13:33:54;1.52;;;1.10;;
44078;SDS011;29744;49.078;12.878;2023-03-01T13:38:57;2.03;;;1.20;;
44078;SDS011;29744;49.078;12.878;2023-03-01T13:43:59;2.13;;;1.13;;
44078;SDS011;29744;49.078;12.878;2023-03-01T13:49:00;2.17;;;1.40;;
44078;SDS011;29744;49.078;12.878;2023-03-01T13:54:00;2.00;;;1.30;;
44078;SDS011;29744;49.078;12.878;2023-03-01T13:59:34;1.90;;;1.20;;
44078;SDS011;29744;49.078;12.878;2023-03-01T14:04:30;1.80;;;1.10;;
44078;SDS011;29744;49.078;12.878;2023-03-01T14:09:37;1.50;;;1.10;;
44078;SDS011;29744;49.078;12.878;2023-03-01T14:14:45;1.70;;;1.00;;
44078;SDS011;29744;49.078;12.878;2023-03-01T14:20:02;2.13;;;1.23;;
44078;SDS011;29744;49.078;12.878;2023-03-01T14:25:31;1.83;;;1.08;;
44078;SDS011;29744;49.078;12.878;2023-03-01T14:30:38;1.60;;;0.93;;
44078;SDS011;29744;49.078;12.878;2023-03-01T14:35:41;1.60;;;1.00;;
44078;SDS011;29744;49.078;12.878;2023-03-01T14:40:41;2.25;;;1.25;;
44078;SDS011;29744;49.078;12.878;2023-03-01T14:45:42;1.70;;;1.10;;
44078;SDS011;29744;49.078;12.878;2023-03-01T14:50:48;1.50;;;1.08;;
44078;SDS011;29744;49.078;12.878;2023-03-01T14:55:50;1.73;;;1.10;;
44078;SDS011;29744;49.078;12.878;2023-03-01T15:00:53;2.25;;;1.20;;
44078;SDS011;29744;49.078;12.878;2023-03-01T15:05:56;1.70;;;1.00;;
44078;SDS011;29744;49.078;12.878;2023-03-01T15:16:01;1.73;;;1.00;;
44078;SDS011;29744;49.078;12.878;2023-03-01T15:22:05;1.92;;;1.17;;
44078;SDS011;29744;49.078;12.878;2023-03-01T15:26:37;1.95;;;1.15;;
44078;SDS011;29744;49.078;12.878;2023-03-01T15:31:40;1.35;;;0.98;;
44078;SDS011;29744;49.078;12.878;2023-03-01T15:36:42;1.50;;;1.00;;
44078;SDS011;29744;49.078;12.878;2023-03-01T15:41:47;2.35;;;1.30;;
44078;SDS011;29744;49.078;12.878;2023-03-01T15:46:48;1.88;;;1.10;;
44078;SDS011;29744;49.078;12.878;2023-03-01T15:51:48;2.25;;;1.20;;
44078;SDS011;29744;49.078;12.878;2023-03-01T15:56:49;1.95;;;1.10;;
44078;SDS011;29744;49.078;12.878;2023-03-01T16:01:50;2.35;;;1.20;;
44078;SDS011;29744;49.078;12.878;2023-03-01T16:06:51;2.30;;;1.10;;
44078;SDS011;29744;49.078;12.878;2023-03-01T16:11:55;1.92;;;1.10;;
44078;SDS011;29744;49.078;12.878;2023-03-01T16:16:55;2.42;;;1.20;;
44078;SDS011;29744;49.078;12.878;2023-03-01T16:21:55;2.05;;;1.10;;
44078;SDS011;29744;49.078;12.878;2023-03-01T16:26:56;2.10;;;1.15;;
44078;SDS011;29744;49.078;12.878;2023-03-01T16:31:56;1.98;;;1.00;;
44078;SDS011;29744;49.078;12.878;2023-03-01T16:36:56;1.48;;;0.90;;
44078;SDS011;29744;49.078;12.878;2023-03-01T16:41:58;1.38;;;0.93;;
44078;SDS011;29744;49.078;12.878;2023-03-01T16:46:59;1.70;;;1.00;;
44078;SDS011;29744;49.078;12.878;2023-03-01T16:52:00;1.58;;;0.90;;
44078;SDS011;29744;49.078;12.878;2023-03-01T16:57:00;2.05;;;1.08;;
44078;SDS011;29744;49.078;12.878;2023-03-01T17:02:00;2.17;;;1.00;;
44078;SDS011;29744;49.078;12.878;2023-03-01T17:07:01;2.50;;;1.33;;
44078;SDS011;29744;49.078;12.878;2023-03-01T17:12:01;1.63;;;0.93;;
44078;SDS011;29744;49.078;12.878;2023-03-01T17:17:01;2.05;;;0.98;;
44078;SDS011;29744;49.078;12.878;2023-03-01T17:22:02;2.08;;;0.90;;
44078;SDS011;29744;49.078;12.878;2023-03-01T17:27:03;1.65;;;0.90;;
44078;SDS011;29744;49.078;12.878;2023-03-01T17:32:03;1.40;;;0.98;;
44078;SDS011;29744;49.078;12.878;2023-03-01T17:37:03;1.35;;;0.90;;
44078;SDS011;29744;49.078;12.878;2023-03-01T17:42:04;1.45;;;0.90;;
44078;SDS011;29744;49.078;12.878;2023-03-01T17:47:05;1.25;;;0.85;;
44078;SDS011;29744;49.078;12.878;2023-03-01T17:52:05;1.45;;;0.90;;
44078;SDS011;29744;49.078;12.878;2023-03-01T17:57:06;2.00;;;1.00;;
44078;SDS011;29744;49.078;12.878;2023-03-01T18:02:06;2.17;;;1.00;;
44078;SDS011;29744;49.078;12.878;2023-03-01T18:07:07;1.77;;;1.00;;
44078;SDS011;29744;49.078;12.878;2023-03-01T18:12:07;1.50;;;0.85;;
44078;SDS011;29744;49.078;12.878;2023-03-01T18:17:07;1.73;;;1.00;;
44078;SDS011;29744;49.078;12.878;2023-03-01T18:22:10;1.45;;;0.95;;
44078;SDS011;29744;49.078;12.878;2023-03-01T18:27:12;1.90;;;1.08;;
44078;SDS011;29744;49.078;12.878;2023-03-01T18:32:12;1.48;;;0.85;;
44078;SDS011;29744;49.078;12.878;2023-03-01T18:37:12;1.92;;;1.00;;
44078;SDS011;29744;49.078;12.878;2023-03-01T18:42:13;1.30;;;0.90;;
44078;SDS011;29744;49.078;12.878;2023-03-01T18:47:15;1.90;;;0.95;;
44078;SDS011;29744;49.078;12.878;2023-03-01T18:52:15;2.10;;;1.10;;
44078;SDS011;29744;49.078;12.878;2023-03-01T18:57:16;1.52;;;0.98;;
44078;SDS011;29744;49.078;12.878;2023-03-01T19:02:16;1.58;;;0.93;;
44078;SDS011;29744;49.078;12.878;2023-03-01T19:07:16;1.77;;;1.10;;
44078;SDS011;29744;49.078;12.878;2023-03-01T19:12:17;2.10;;;0.93;;
44078;SDS011;29744;49.078;12.878;2023-03-01T19:17:17;1.88;;;1.00;;
44078;SDS011;29744;49.078;12.878;2023-03-01T19:22:18;2.03;;;1.10;;
44078;SDS011;29744;49.078;12.878;2023-03-01T19:27:19;1.60;;;1.05;;
44078;SDS011;29744;49.078;12.878;2023-03-01T19:32:19;1.58;;;1.00;;
44078;SDS011;29744;49.078;12.878;2023-03-01T19:37:19;1.88;;;1.10;;
44078;SDS011;29744;49.078;12.878;2023-03-01T19:42:19;1.67;;;1.00;;
44078;SDS011;29744;49.078;12.878;2023-03-01T19:47:22;1.80;;;1.10;;
44078;SDS011;29744;49.078;12.878;2023-03-01T19:52:22;1.75;;;1.17;;
44078;SDS011;29744;49.078;12.878;2023-03-01T19:57:23;1.50;;;1.00;;
44078;SDS011;29744;49.078;12.878;2023-03-01T20:02:23;1.92;;;1.00;;
44078;SDS011;29744;49.078;12.878;2023-03-01T20:07:23;1.75;;;1.00;;
44078;SDS011;29744;49.078;12.878;2023-03-01T20:12:24;2.03;;;1.10;;
44078;SDS011;29744;49.078;12.878;2023-03-01T20:17:24;1.92;;;1.10;;
44078;SDS011;29744;49.078;12.878;2023-03-01T20:22:24;1.67;;;1.10;;
44078;SDS011;29744;49.078;12.878;2023-03-01T20:27:24;1.65;;;0.93;;
44078;SDS011;29744;49.078;12.878;2023-03-01T20:32:25;2.55;;;1.30;;
44078;SDS011;29744;49.078;12.878;2023-03-01T20:37:25;1.58;;;1.00;;
44078;SDS011;29744;49.078;12.878;2023-03-01T20:42:26;2.30;;;1.23;;
44078;SDS011;29744;49.078;12.878;2023-03-01T20:47:26;2.10;;;1.20;;
44078;SDS011;29744;49.078;12.878;2023-03-01T20:52:26;2.53;;;1.30;;
44078;SDS011;29744;49.078;12.878;2023-03-01T20:57:27;2.28;;;1.40;;
44078;SDS011;29744;49.078;12.878;2023-03-01T21:02:27;2.38;;;1.30;;
44078;SDS011;29744;49.078;12.878;2023-03-01T21:07:27;2.08;;;1.30;;
44078;SDS011;29744;49.078;12.878;2023-03-01T21:12:27;2.30;;;1.30;;
44078;SDS011;29744;49.078;12.878;2023-03-01T21:17:28;2.38;;;1.40;;
44078;SDS011;29744;49.078;12.878;2023-03-01T21:22:28;2.53;;;1.35;;
44078;SDS011;29744;49.078;12.878;2023-03-01T21:27:29;2.22;;;1.30;;
44078;SDS011;29744;49.078;12.878;2023-03-01T21:32:29;1.85;;;1.15;;
44078;SDS011;29744;49.078;12.878;2023-03-01T21:37:29;2.22;;;1.30;;
44078;SDS011;29744;49.078;12.878;2023-03-01T21:42:30;2.22;;;1.25;;
44078;SDS011;29744;49.078;12.878;2023-03-01T21:47:32;2.65;;;1.45;;
44078;SDS011;29744;49.078;12.878;2023-03-01T21:52:33;2.67;;;1.40;;
44078;SDS011;29744;49.078;12.878;2023-03-01T21:57:34;2.58;;;1.30;;
44078;SDS011;29744;49.078;12.878;2023-03-01T22:02:42;2.53;;;1.52;;
44078;SDS011;29744;49.078;12.878;2023-03-01T22:07:42;2.40;;;1.25;;
44078;SDS011;29744;49.078;12.878;2023-03-01T22:12:43;2.53;;;1.27;;
44078;SDS011;29744;49.078;12.878;2023-03-01T22:17:43;2.25;;;1.25;;
44078;SDS011;29744;49.078;12.878;2023-03-01T22:22:43;2.10;;;1.13;;
44078;SDS011;29744;49.078;12.878;2023-03-01T22:27:44;2.22;;;1.33;;
44078;SDS011;29744;49.078;12.878;2023-03-01T22:32:44;2.45;;;1.30;;
44078;SDS011;29744;49.078;12.878;2023-03-01T22:37:44;2.08;;;1.20;;
44078;SDS011;29744;49.078;12.878;2023-03-01T22:42:45;2.40;;;1.40;;
44078;SDS011;29744;49.078;12.878;2023-03-01T22:47:45;2.60;;;1.33;;
44078;SDS011;29744;49.078;12.878;2023-03-01T22:52:45;2.33;;;1.50;;
44078;SDS011;29744;49.078;12.878;2023-03-01T22:57:49;2.35;;;1.25;;
44078;SDS011;29744;49.078;12.878;2023-03-01T23:02:50;2.15;;;1.20;;
44078;SDS011;29744;49.078;12.878;2023-03-01T23:07:50;2.58;;;1.48;;
44078;SDS011;29744;49.078;12.878;2023-03-01T23:12:53;2.58;;;1.25;;
44078;SDS011;29744;49.078;12.878;2023-03-01T23:17:54;2.75;;;1.40;;
44078;SDS011;29744;49.078;12.878;2023-03-01T23:22:54;2.70;;;1.33;;
44078;SDS011;29744;49.078;12.878;2023-03-01T23:28:00;2.40;;;1.20;;
44078;SDS011;29744;49.078;12.878;2023-03-01T23:33:00;2.80;;;1.60;;
44078;SDS011;29744;49.078;12.878;2023-03-01T23:38:00;2.45;;;1.40;;
44078;SDS011;29744;49.078;12.878;2023-03-01T23:43:01;2.17;;;1.30;;
44078;SDS011;29744;49.078;12.878;2023-03-01T23:48:01;2.38;;;1.20;;
44078;SDS011;29744;49.078;12.878;2023-03-01T23:53:01;2.53;;;1.38;;
44078;SDS011;29744;49.078;12.878;2023-03-01T23:58:02;2.35;;;1.20;;
